Time;durP1;ratioP1;P1;durP2;ratioP2;P2;SDS_P1;SDS_P2;PMS_P1;PMS_P2;Temp;Humidity;BMP_temperature;BMP_pressure;BME280_temperature;BME280_humidity;BME280_pressure;Samples;Min_cycle;Max_cycle;Signal;HPM_P1;HPM_P2
2023/01/05 00:00:49;;;;;;;26.13;15.17;;;;;;;6.16;100.00;98793.88;5034359;23;20913;-69
2023/01/05 00:03:16;;;;;;;26.70;15.50;;;;;;;6.17;100.00;98784.94;5023185;23;23029;-67
2023/01/05 00:05:42;;;;;;;26.47;15.30;;;;;;;6.16;100.00;98782.44;5057176;23;20213;-66
2023/01/05 00:08:09;;;;;;;23.57;14.73;;;;;;;6.21;100.00;98773.09;5064661;23;20220;-67
2023/01/05 00:24:30;;;;;;;23.93;13.87;;;;;;;6.31;100.00;98749.19;5030434;23;20223;-67
2023/01/05 00:26:57;;;;;;;22.97;13.40;;;;;;;6.37;100.00;98750.34;5024461;23;20264;-68
2023/01/05 00:29:23;;;;;;;25.13;13.60;;;;;;;6.36;100.00;98746.06;5037879;23;20205;-69
2023/01/05 00:31:50;;;;;;;21.03;12.93;;;;;;;6.40;100.00;98742.13;5028896;23;20204;-69
2023/01/05 00:34:16;;;;;;;22.83;13.77;;;;;;;6.43;100.00;98739.16;5027379;23;21490;-66
2023/01/05 00:36:43;;;;;;;19.60;12.23;;;;;;;6.47;100.00;98751.88;5010932;23;21012;-68
2023/01/05 00:39:09;;;;;;;20.40;12.43;;;;;;;6.46;100.00;98752.03;5030305;23;20513;-67
2023/01/05 00:41:36;;;;;;;17.53;11.07;;;;;;;6.50;100.00;98737.53;5028516;23;20328;-68
2023/01/05 00:44:02;;;;;;;20.90;11.47;;;;;;;6.52;100.00;98741.66;5065517;23;20363;-68
2023/01/05 00:46:29;;;;;;;16.77;11.23;;;;;;;6.51;100.00;98734.72;5031472;23;20206;-67
2023/01/05 00:48:55;;;;;;;17.27;11.07;;;;;;;6.51;100.00;98724.16;5027441;23;21623;-68
2023/01/05 00:51:22;;;;;;;16.57;10.53;;;;;;;6.54;100.00;98712.44;5023228;23;20503;-68
2023/01/05 00:53:49;;;;;;;14.03;9.90;;;;;;;6.59;100.00;98715.41;5034256;23;20247;-69
2023/01/05 00:56:15;;;;;;;17.77;9.27;;;;;;;6.58;100.00;98724.34;5025073;23;20289;-68
2023/01/05 00:58:42;;;;;;;14.43;9.30;;;;;;;6.63;100.00;98724.69;5019344;23;20379;-70
2023/01/05 01:01:11;;;;;;;15.00;8.87;;;;;;;6.64;100.00;98713.09;5030183;23;23111;-68
2023/01/05 01:03:38;;;;;;;13.20;8.23;;;;;;;6.61;100.00;98708.16;5040625;23;20207;-68
2023/01/05 01:06:05;;;;;;;13.43;8.30;;;;;;;6.64;100.00;98709.63;5015672;23;21164;-67
2023/01/05 01:08:31;;;;;;;12.73;8.33;;;;;;;6.64;100.00;98718.41;5033804;23;20284;-67
2023/01/05 01:11:05;;;;;;;13.97;8.23;;;;;;;6.65;100.00;98703.34;5037816;23;20598;-67
2023/01/05 01:13:32;;;;;;;13.73;8.10;;;;;;;6.65;100.00;98704.22;5028151;23;23553;-70
2023/01/05 01:16:12;;;;;;;12.27;7.47;;;;;;;6.67;100.00;98709.31;5029090;23;20224;-68
2023/01/05 01:18:39;;;;;;;16.37;7.00;;;;;;;6.65;100.00;98693.63;5027408;23;20499;-68
2023/01/05 01:21:06;;;;;;;12.43;7.27;;;;;;;6.65;100.00;98687.50;5033078;23;20274;-66
2023/01/05 01:23:33;;;;;;;13.20;7.40;;;;;;;6.64;100.00;98691.97;5042061;23;20201;-67
2023/01/05 01:26:07;;;;;;;12.30;7.90;;;;;;;6.61;100.00;98687.00;5013703;23;20212;-71
2023/01/05 01:28:34;;;;;;;13.80;7.67;;;;;;;6.57;100.00;98693.59;5045200;23;20208;-68
2023/01/05 01:31:00;;;;;;;12.70;7.30;;;;;;;6.60;100.00;98680.06;5045014;23;20383;-69
2023/01/05 01:33:28;;;;;;;10.90;7.40;;;;;;;6.59;100.00;98678.41;5025941;23;20206;-68
2023/01/05 01:35:55;;;;;;;15.87;7.97;;;;;;;6.58;100.00;98682.06;5076009;23;21825;-67
2023/01/05 01:38:22;;;;;;;16.57;7.90;;;;;;;6.64;100.00;98681.38;5051006;23;20315;-68
2023/01/05 01:40:49;;;;;;;14.40;8.13;;;;;;;6.64;100.00;98678.75;5041078;23;20801;-67
2023/01/05 01:43:19;;;;;;;13.83;7.87;;;;;;;6.63;100.00;98658.59;5010203;23;20299;-68
2023/01/05 01:45:45;;;;;;;12.60;8.10;;;;;;;6.60;100.00;98660.72;5006503;23;20204;-66
2023/01/05 01:48:16;;;;;;;12.27;7.63;;;;;;;6.61;100.00;98649.19;5033388;23;20209;-67
2023/01/05 01:50:47;;;;;;;13.97;8.40;;;;;;;6.57;100.00;98638.09;5032722;23;20208;-68
2023/01/05 01:53:20;;;;;;;12.63;8.13;;;;;;;6.61;100.00;98635.97;5031224;23;20212;-66
2023/01/05 01:55:46;;;;;;;14.93;8.60;;;;;;;6.62;100.00;98646.38;5023423;23;20285;-66
2023/01/05 01:58:15;;;;;;;11.13;7.80;;;;;;;6.65;100.00;98645.22;5056695;23;20272;-67
2023/01/05 02:00:42;;;;;;;16.53;8.17;;;;;;;6.62;100.00;98638.44;5039534;23;20259;-67
2023/01/05 02:03:09;;;;;;;13.20;8.30;;;;;;;6.66;100.00;98631.03;5013063;23;20215;-68
2023/01/05 02:05:36;;;;;;;13.17;8.30;;;;;;;6.65;100.00;98619.63;5026924;23;20268;-66
2023/01/05 02:08:09;;;;;;;11.60;7.40;;;;;;;6.73;100.00;98632.84;5060569;23;20200;-67
2023/01/05 02:10:51;;;;;;;11.20;7.03;;;;;;;6.77;100.00;98622.78;5074452;23;20207;-67
2023/01/05 02:13:28;;;;;;;9.33;7.00;;;;;;;6.83;100.00;98621.28;5023720;23;21715;-67
2023/01/05 02:16:03;;;;;;;10.20;6.77;;;;;;;6.92;100.00;98620.28;5054140;23;25283;-66
2023/01/05 02:18:38;;;;;;;10.20;6.80;;;;;;;6.89;100.00;98621.44;5069613;23;20542;-66
2023/01/05 02:21:41;;;;;;;9.10;6.33;;;;;;;6.90;100.00;98609.03;5046155;23;20211;-67
2023/01/05 02:24:23;;;;;;;10.33;6.17;;;;;;;6.92;100.00;98609.69;5044210;23;20298;-68
2023/01/05 02:27:05;;;;;;;13.83;6.73;;;;;;;6.91;100.00;98605.41;5054019;23;20204;-66
2023/01/05 02:29:40;;;;;;;10.53;6.70;;;;;;;6.94;100.00;98603.25;5017603;23;20308;-67
2023/01/05 02:32:22;;;;;;;9.53;6.60;;;;;;;6.98;100.00;98609.03;5077780;23;20313;-67
2023/01/05 02:35:07;;;;;;;10.90;6.70;;;;;;;6.98;100.00;98607.22;5046239;23;20215;-66
2023/01/05 02:37:33;;;;;;;9.00;6.17;;;;;;;7.02;100.00;98605.06;5054891;23;20264;-67
2023/01/05 02:40:18;;;;;;;9.73;5.50;;;;;;;7.05;100.00;98596.81;5050021;23;20648;-66
2023/01/05 02:42:47;;;;;;;9.33;6.33;;;;;;;7.06;100.00;98606.38;5039621;23;20215;-67
2023/01/05 02:45:14;;;;;;;8.33;5.80;;;;;;;7.07;100.00;98591.31;5038961;23;21746;-68
2023/01/05 02:47:42;;;;;;;8.30;5.60;;;;;;;7.12;100.00;98594.31;5033856;23;22701;-68
2023/01/05 02:50:29;;;;;;;9.37;5.77;;;;;;;7.11;100.00;98588.19;5056095;23;20417;-66
2023/01/05 02:53:02;;;;;;;8.83;5.90;;;;;;;7.12;100.00;98583.72;5039534;23;22561;-69
2023/01/05 02:55:36;;;;;;;8.10;5.50;;;;;;;7.11;100.00;98588.19;5040565;23;20380;-68
2023/01/05 02:58:26;;;;;;;7.60;5.30;;;;;;;7.15;100.00;98581.56;5056669;23;20279;-67
2023/01/05 03:00:55;;;;;;;7.33;5.57;;;;;;;7.11;100.00;98572.31;5033922;23;21557;-68
2023/01/05 03:03:30;;;;;;;9.87;5.77;;;;;;;7.13;100.00;98575.63;5034427;23;21657;-67
2023/01/05 03:06:11;;;;;;;8.13;5.30;;;;;;;7.14;100.00;98573.78;5035794;23;20209;-67
2023/01/05 03:08:41;;;;;;;10.40;5.70;;;;;;;7.17;100.00;98566.34;5010494;23;20219;-67
2023/01/05 03:14:07;;;;;;;7.47;5.53;;;;;;;7.25;100.00;98569.97;5032859;23;20247;-67
2023/01/05 03:16:35;;;;;;;6.87;5.50;;;;;;;7.25;100.00;98567.31;5052082;23;21315;-68
2023/01/05 03:35:54;;;;;;;11.10;5.63;;;;;;;7.06;100.00;98557.94;5061567;23;21428;-66
2023/01/05 03:38:38;;;;;;;7.67;4.77;;;;;;;7.03;100.00;98540.59;5030110;23;20204;-66
2023/01/05 03:41:09;;;;;;;8.03;4.93;;;;;;;7.00;100.00;98532.16;5030502;23;20208;-68
2023/01/05 03:43:35;;;;;;;8.57;5.10;;;;;;;7.02;100.00;98532.81;5040737;23;20208;-65
2023/01/05 03:46:09;;;;;;;8.87;4.50;;;;;;;7.08;100.00;98525.03;5052983;23;25254;-66
2023/01/05 03:48:36;;;;;;;6.00;4.03;;;;;;;7.03;100.00;98526.56;5029820;23;20204;-68
2023/01/05 03:51:03;;;;;;;5.07;3.60;;;;;;;7.04;100.00;98529.03;5052866;23;20267;-67
2023/01/05 03:53:30;;;;;;;6.53;3.37;;;;;;;7.06;100.00;98527.03;5073900;23;21746;-66
2023/01/05 03:55:56;;;;;;;6.27;3.23;;;;;;;7.07;100.00;98528.69;5046888;23;22665;-66
2023/01/05 03:58:23;;;;;;;5.00;3.23;;;;;;;7.09;100.00;98531.97;5023448;23;20260;-66
2023/01/05 04:00:49;;;;;;;4.37;2.87;;;;;;;7.06;100.00;98521.75;5024902;23;20711;-68
2023/01/05 04:03:16;;;;;;;5.20;3.47;;;;;;;7.04;100.00;98507.84;5026644;23;25698;-66
2023/01/05 04:05:43;;;;;;;4.07;3.10;;;;;;;7.00;100.00;98526.88;5054421;23;20359;-68
2023/01/05 04:08:09;;;;;;;4.93;3.10;;;;;;;7.02;100.00;98517.78;5045256;23;20240;-66
2023/01/05 04:10:36;;;;;;;3.93;2.87;;;;;;;7.00;100.00;98514.50;5033824;23;20211;-66
2023/01/05 04:13:03;;;;;;;5.47;3.50;;;;;;;6.94;100.00;98515.16;5039820;23;23074;-67
2023/01/05 04:15:29;;;;;;;5.00;3.27;;;;;;;6.91;100.00;98515.53;5052004;23;20585;-66
2023/01/05 04:17:56;;;;;;;5.80;2.90;;;;;;;6.89;100.00;98520.16;5076997;23;21374;-67
2023/01/05 04:20:22;;;;;;;10.00;3.33;;;;;;;6.90;100.00;98525.25;5050082;23;20205;-67
2023/01/05 04:22:49;;;;;;;5.40;3.27;;;;;;;6.92;100.00;98528.56;5049144;23;20214;-67
2023/01/05 04:25:15;;;;;;;5.73;3.37;;;;;;;6.91;100.00;98534.84;5046472;23;20314;-69
2023/01/05 04:27:42;;;;;;;3.93;3.20;;;;;;;6.91;100.00;98545.41;5031255;23;20216;-67
2023/01/05 04:30:09;;;;;;;5.70;3.10;;;;;;;6.90;100.00;98541.09;5026463;23;20233;-70
2023/01/05 04:32:36;;;;;;;6.13;3.03;;;;;;;6.88;100.00;98534.34;5057042;23;20297;-68
2023/01/05 04:35:03;;;;;;;4.30;2.87;;;;;;;6.86;100.00;98547.75;5032579;23;21377;-69
2023/01/05 04:37:37;;;;;;;5.10;2.80;;;;;;;6.81;100.00;98541.28;5054355;23;21441;-67
2023/01/05 04:40:05;;;;;;;4.57;3.13;;;;;;;6.75;100.00;98535.69;5048949;23;20205;-66
2023/01/05 04:42:31;;;;;;;6.23;3.13;;;;;;;6.72;100.00;98525.47;5060815;23;25283;-67
2023/01/05 04:44:58;;;;;;;5.10;2.70;;;;;;;6.69;100.00;98536.34;5031849;23;20682;-67
2023/01/05 04:47:24;;;;;;;7.30;3.20;;;;;;;6.69;100.00;98530.25;5031389;23;20647;-68
2023/01/05 04:49:51;;;;;;;8.20;3.60;;;;;;;6.67;100.00;98532.22;5055787;23;20206;-67
2023/01/05 04:52:17;;;;;;;8.00;4.13;;;;;;;6.67;100.00;98529.56;5022185;23;21240;-68
2023/01/05 04:54:44;;;;;;;5.80;4.00;;;;;;;6.67;100.00;98529.56;5021907;23;20206;-67
2023/01/05 04:57:11;;;;;;;8.97;4.60;;;;;;;6.66;100.00;98526.13;5048762;23;20718;-67
2023/01/05 04:59:37;;;;;;;8.77;4.93;;;;;;;6.68;100.00;98533.88;5034795;23;21255;-68
2023/01/05 05:02:04;;;;;;;7.97;5.10;;;;;;;6.68;100.00;98526.78;5031993;23;25265;-68
2023/01/05 05:04:31;;;;;;;6.83;4.60;;;;;;;6.66;100.00;98514.72;5026031;23;20300;-67
2023/01/05 05:06:57;;;;;;;6.60;4.90;;;;;;;6.64;100.00;98517.53;5046827;23;20201;-68
2023/01/05 05:09:24;;;;;;;6.93;5.27;;;;;;;6.63;100.00;98525.66;5056296;23;22931;-67
2023/01/05 05:11:51;;;;;;;7.83;5.43;;;;;;;6.65;100.00;98529.78;5058646;23;21310;-66
2023/01/05 05:14:17;;;;;;;7.97;6.20;;;;;;;6.65;100.00;98529.78;5045959;23;20279;-66
2023/01/05 05:16:44;;;;;;;7.70;5.77;;;;;;;6.67;100.00;98527.78;5012680;23;20637;-67
2023/01/05 05:19:11;;;;;;;8.63;5.93;;;;;;;6.65;100.00;98528.91;5029779;23;20290;-67
2023/01/05 05:21:37;;;;;;;8.40;5.70;;;;;;;6.68;100.00;98536.53;5028676;23;25570;-67
2023/01/05 05:24:04;;;;;;;11.23;6.60;;;;;;;6.60;100.00;98531.25;5033430;23;20592;-66
2023/01/05 05:26:31;;;;;;;8.53;5.47;;;;;;;6.59;100.00;98525.13;5021291;23;20291;-67
2023/01/05 05:28:58;;;;;;;8.17;5.50;;;;;;;6.59;100.00;98533.06;5033663;23;20356;-66
2023/01/05 05:31:25;;;;;;;7.90;5.07;;;;;;;6.54;100.00;98540.66;5053856;23;20787;-68
2023/01/05 05:33:51;;;;;;;8.90;5.00;;;;;;;6.55;100.00;98550.25;5023653;23;20480;-67
2023/01/05 05:36:19;;;;;;;7.17;4.70;;;;;;;6.59;100.00;98548.91;5031675;23;20216;-66
2023/01/05 05:38:45;;;;;;;7.83;5.00;;;;;;;6.52;100.00;98538.19;5024797;23;21140;-68
2023/01/05 05:41:12;;;;;;;5.70;4.00;;;;;;;6.52;100.00;98540.81;5030717;23;20883;-69
2023/01/05 05:43:38;;;;;;;5.47;3.50;;;;;;;6.48;100.00;98550.06;5024233;23;20476;-66
2023/01/05 05:46:05;;;;;;;4.77;3.20;;;;;;;6.50;100.00;98542.00;5035915;23;20265;-67
2023/01/05 05:48:32;;;;;;;6.30;3.30;;;;;;;6.47;100.00;98537.84;5051813;23;25024;-67
2023/01/05 05:50:59;;;;;;;5.20;2.80;;;;;;;6.46;100.00;98546.78;5038641;23;22199;-69
2023/01/05 05:53:25;;;;;;;3.97;2.40;;;;;;;6.50;100.00;98542.00;5028865;23;21335;-67
2023/01/05 05:55:52;;;;;;;6.53;2.10;;;;;;;6.45;100.00;98539.84;5042524;23;22978;-67
2023/01/05 05:58:19;;;;;;;6.73;1.90;;;;;;;6.42;100.00;98544.66;5035759;23;20220;-68
2023/01/05 06:00:45;;;;;;;3.43;2.03;;;;;;;6.46;100.00;98544.16;5051726;23;20213;-68
2023/01/05 06:03:12;;;;;;;7.00;1.83;;;;;;;6.42;100.00;98537.53;5029204;23;23454;-68
2023/01/05 06:05:39;;;;;;;3.40;1.57;;;;;;;6.40;100.00;98543.97;5029633;23;20659;-67
2023/01/05 06:08:05;;;;;;;3.23;1.97;;;;;;;6.40;100.00;98549.25;5032519;23;20288;-67
2023/01/05 06:10:32;;;;;;;5.10;1.90;;;;;;;6.44;100.00;98547.91;5064987;23;20273;-67
2023/01/05 06:13:00;;;;;;;4.10;1.77;;;;;;;6.46;100.00;98551.22;5215242;23;20226;-68
2023/01/05 06:15:27;;;;;;;3.93;1.70;;;;;;;6.40;100.00;98546.63;5130020;23;20204;-67
2023/01/05 06:17:53;;;;;;;3.87;1.70;;;;;;;6.43;100.00;98554.22;5036222;23;20217;-69
2023/01/05 06:20:20;;;;;;;3.87;1.53;;;;;;;6.39;100.00;98559.00;5026654;23;21748;-70
2023/01/05 06:22:47;;;;;;;4.60;2.00;;;;;;;6.40;100.00;98557.19;5018812;23;20212;-68
2023/01/05 06:25:14;;;;;;;4.73;1.90;;;;;;;6.38;100.00;98559.16;5032572;23;20205;-69
2023/01/05 06:27:41;;;;;;;5.70;2.10;;;;;;;6.41;100.00;98558.81;5030557;23;20205;-68
2023/01/05 06:30:08;;;;;;;6.03;2.20;;;;;;;6.44;100.00;98559.34;5045253;23;20205;-67
2023/01/05 06:32:35;;;;;;;6.87;1.90;;;;;;;6.49;100.00;98557.03;5026096;23;21620;-68
2023/01/05 06:35:01;;;;;;;6.10;2.17;;;;;;;6.47;100.00;98558.19;5019971;23;20260;-69
2023/01/05 06:37:28;;;;;;;4.33;2.00;;;;;;;6.50;100.00;98553.38;5025744;23;20277;-68
2023/01/05 06:39:55;;;;;;;3.80;1.73;;;;;;;6.52;100.00;98563.78;5032744;23;20201;-69
2023/01/05 06:42:21;;;;;;;4.47;1.70;;;;;;;6.49;100.00;98572.06;5043397;23;21440;-68
2023/01/05 06:44:49;;;;;;;7.50;2.23;;;;;;;6.45;100.00;98566.25;5033786;23;20237;-67
2023/01/05 06:47:16;;;;;;;6.53;2.10;;;;;;;6.52;100.00;98561.97;5028240;23;25490;-68
2023/01/05 06:49:42;;;;;;;5.43;1.83;;;;;;;6.51;100.00;98570.06;5040848;23;20208;-67
2023/01/05 06:52:09;;;;;;;4.07;2.00;;;;;;;6.49;100.00;98567.59;5022963;23;20353;-68
2023/01/05 06:54:42;;;;;;;7.40;2.30;;;;;;;6.49;100.00;98567.59;5023935;23;20216;-67
2023/01/05 06:57:08;;;;;;;4.47;2.07;;;;;;;6.45;100.00;98574.19;5042188;23;20624;-67
2023/01/05 06:59:35;;;;;;;8.80;2.80;;;;;;;6.44;100.00;98569.91;5028939;23;20473;-67
2023/01/05 07:02:02;;;;;;;6.17;3.00;;;;;;;6.44;100.00;98566.41;5036804;23;20202;-65
2023/01/05 07:04:28;;;;;;;11.40;3.40;;;;;;;6.45;100.00;98571.53;5030164;23;20201;-67
2023/01/05 07:06:55;;;;;;;8.50;3.33;;;;;;;6.42;100.00;98576.34;5039337;23;20599;-65
2023/01/05 07:09:22;;;;;;;7.00;4.10;;;;;;;6.44;100.00;98559.34;5049144;23;21601;-67
2023/01/05 07:11:49;;;;;;;11.77;4.33;;;;;;;6.45;100.00;98576.00;5026999;23;20560;-68
2023/01/05 07:14:16;;;;;;;9.57;4.40;;;;;;;6.43;100.00;98572.69;5036327;23;21522;-67
2023/01/05 07:16:42;;;;;;;9.40;4.47;;;;;;;6.52;100.00;98582.28;5029488;23;21255;-70
2023/01/05 07:19:09;;;;;;;9.93;4.63;;;;;;;6.45;100.00;98584.75;5021402;23;20428;-70
2023/01/05 07:21:36;;;;;;;12.73;5.50;;;;;;;6.44;100.00;98579.63;5037847;23;20207;-68
2023/01/05 07:24:02;;;;;;;13.27;5.03;;;;;;;6.47;100.00;98576.69;5041323;23;20637;-68
2023/01/05 07:26:29;;;;;;;14.70;6.20;;;;;;;6.47;100.00;98577.50;5035019;23;20261;-68
2023/01/05 07:28:57;;;;;;;9.70;5.90;;;;;;;6.53;100.00;98579.50;5034198;23;20221;-68
2023/01/05 07:31:23;;;;;;;12.43;5.60;;;;;;;6.51;100.00;98575.38;5044202;23;20319;-70
2023/01/05 07:33:50;;;;;;;11.03;5.67;;;;;;;6.55;100.00;98571.38;5030250;23;21595;-67
2023/01/05 07:36:16;;;;;;;10.20;5.60;;;;;;;6.58;100.00;98581.63;5062088;23;21656;-67
2023/01/05 07:38:43;;;;;;;11.30;5.40;;;;;;;6.58;100.00;98572.84;5032843;23;20502;-69
2023/01/05 07:41:10;;;;;;;13.57;5.87;;;;;;;6.62;100.00;98575.00;5039272;23;23172;-67
2023/01/05 07:43:37;;;;;;;8.60;4.57;;;;;;;6.65;100.00;98582.63;5051626;23;21195;-66
2023/01/05 07:46:04;;;;;;;11.30;5.40;;;;;;;6.68;100.00;98581.47;5098407;23;24881;-68
2023/01/05 07:48:30;;;;;;;11.83;5.33;;;;;;;6.70;100.00;98590.88;5029814;23;21751;-67
2023/01/05 07:51:04;;;;;;;12.30;5.10;;;;;;;6.73;100.00;98582.59;5034400;23;21127;-65
2023/01/05 07:53:33;;;;;;;12.83;5.30;;;;;;;6.78;100.00;98586.56;5058832;23;21698;-67
2023/01/05 07:56:10;;;;;;;11.33;4.60;;;;;;;6.81;100.00;98586.25;5048425;23;20864;-68
2023/01/05 07:58:36;;;;;;;9.43;4.90;;;;;;;6.84;100.00;98592.03;5038311;23;20209;-67
2023/01/05 08:01:09;;;;;;;9.70;4.73;;;;;;;6.86;100.00;98587.41;5043452;23;20220;-68
2023/01/05 08:03:35;;;;;;;10.60;5.10;;;;;;;6.85;100.00;98592.84;5070156;23;20570;-66
2023/01/05 08:06:10;;;;;;;9.73;4.60;;;;;;;6.88;100.00;98595.16;5162566;23;20375;-68
2023/01/05 08:08:37;;;;;;;10.37;4.90;;;;;;;6.87;100.00;98596.97;5123755;23;22583;-69
2023/01/05 08:11:05;;;;;;;10.63;4.20;;;;;;;6.88;100.00;98585.44;5044854;23;21518;-67
2023/01/05 08:16:22;;;;;;;12.43;4.57;;;;;;;6.87;100.00;98588.22;5103592;23;20216;-70
2023/01/05 08:18:50;;;;;;;9.53;4.60;;;;;;;6.89;100.00;98588.88;5093614;23;20668;-66
2023/01/05 08:21:17;;;;;;;12.67;5.00;;;;;;;6.87;100.00;98598.81;5133715;23;22144;-68
2023/01/05 08:23:45;;;;;;;10.47;4.00;;;;;;;6.88;100.00;98603.94;5166251;23;20214;-69
2023/01/05 08:26:15;;;;;;;10.33;4.60;;;;;;;6.85;100.00;98598.97;5117576;23;20200;-68
2023/01/05 08:28:42;;;;;;;10.20;4.43;;;;;;;6.91;100.00;98613.34;5116118;23;20254;-67
2023/01/05 08:31:12;;;;;;;9.70;4.83;;;;;;;6.95;100.00;98601.41;5071505;23;20209;-69
2023/01/05 08:33:39;;;;;;;15.77;4.20;;;;;;;6.95;100.00;98609.34;5136405;23;20279;-69
2023/01/05 08:36:13;;;;;;;11.43;4.20;;;;;;;6.94;100.00;98615.66;5353536;23;20211;-66
2023/01/05 08:38:46;;;;;;;8.70;3.87;;;;;;;6.87;100.00;98606.72;5163208;23;20295;-69
2023/01/05 08:41:34;;;;;;;9.07;3.50;;;;;;;6.90;100.00;98612.50;5176826;23;20656;-68
2023/01/05 08:44:14;;;;;;;10.23;4.20;;;;;;;6.90;100.00;98606.41;5168523;23;20210;-69
2023/01/05 08:46:41;;;;;;;7.33;3.80;;;;;;;6.86;100.00;98620.94;5060703;23;21154;-67
2023/01/05 08:49:08;;;;;;;9.57;3.93;;;;;;;6.91;100.00;98629.22;5046467;23;20207;-69
2023/01/05 08:51:35;;;;;;;10.07;4.50;;;;;;;6.88;100.00;98629.53;5063087;23;20701;-67
2023/01/05 08:54:02;;;;;;;10.67;4.93;;;;;;;6.91;100.00;98635.31;5157098;23;20602;-66
2023/01/05 08:56:29;;;;;;;12.07;5.03;;;;;;;6.89;100.00;98639.13;5045910;23;20210;-67
2023/01/05 08:59:05;;;;;;;10.50;5.23;;;;;;;6.87;100.00;98638.47;5030367;23;20212;-68
2023/01/05 09:01:32;;;;;;;15.57;6.00;;;;;;;6.92;100.00;98638.78;5037661;23;20240;-70
2023/01/05 09:03:59;;;;;;;15.67;6.00;;;;;;;6.92;100.00;98652.00;5042878;23;21778;-68
2023/01/05 09:06:26;;;;;;;11.53;3.70;;;;;;;6.87;100.00;98655.16;5033177;23;20443;-69
2023/01/05 09:08:53;;;;;;;10.20;3.50;;;;;;;6.84;100.00;98657.31;5044304;23;25835;-66
2023/01/05 09:11:21;;;;;;;7.23;2.67;;;;;;;6.72;100.00;98681.41;5050207;23;20208;-70
2023/01/05 09:13:51;;;;;;;9.87;2.40;;;;;;;6.71;100.00;98660.44;5048510;23;21218;-67
2023/01/05 09:16:21;;;;;;;9.43;2.03;;;;;;;6.68;100.00;98671.34;5032575;23;20217;-67
2023/01/05 09:19:08;;;;;;;5.33;1.70;;;;;;;6.68;100.00;98674.78;5045450;23;20214;-67
2023/01/05 09:21:35;;;;;;;7.03;1.97;;;;;;;6.63;100.00;98685.03;5044864;23;20216;-67
2023/01/05 09:24:02;;;;;;;11.67;2.13;;;;;;;6.69;100.00;98684.38;5024870;23;20371;-68
2023/01/05 09:26:28;;;;;;;8.10;2.57;;;;;;;6.66;100.00;98687.34;5049675;23;20200;-65
2023/01/05 09:28:55;;;;;;;8.67;2.33;;;;;;;6.68;100.00;98679.25;5044428;23;21532;-69
2023/01/05 09:31:22;;;;;;;6.70;1.87;;;;;;;6.64;100.00;98683.22;5077127;23;20985;-67
2023/01/05 09:33:49;;;;;;;7.47;2.13;;;;;;;6.72;100.00;98683.25;5027776;23;21065;-65
2023/01/05 09:36:17;;;;;;;5.60;2.30;;;;;;;6.75;100.00;98683.72;5075883;23;20343;-68
2023/01/05 09:38:55;;;;;;;6.63;2.70;;;;;;;6.76;100.00;98680.06;5072872;23;21573;-66
2023/01/05 09:41:27;;;;;;;6.70;2.17;;;;;;;6.84;100.00;98686.38;5061104;23;23431;-67
2023/01/05 09:43:57;;;;;;;4.43;1.77;;;;;;;6.96;100.00;98685.06;5034097;23;20213;-68
2023/01/05 09:46:28;;;;;;;6.33;1.90;;;;;;;7.02;100.00;98694.16;5048497;23;20212;-67
2023/01/05 09:48:58;;;;;;;7.47;1.97;;;;;;;7.03;100.00;98688.69;5086588;23;20841;-68
2023/01/05 09:51:25;;;;;;;3.53;1.70;;;;;;;6.87;100.00;98678.13;5127305;23;20992;-69
2023/01/05 09:53:52;;;;;;;3.17;1.73;;;;;;;6.92;100.00;98689.03;5174357;23;20208;-68
2023/01/05 09:56:28;;;;;;;8.53;1.73;;;;;;;7.04;100.00;98687.69;5062233;23;20287;-67
2023/01/05 09:59:30;;;;;;;5.30;1.80;;;;;;;7.37;100.00;98687.66;5061573;23;25487;-66
2023/01/05 10:02:04;;;;;;;6.07;1.73;;;;;;;7.50;100.00;98690.63;5042392;23;20692;-67
2023/01/05 10:04:32;;;;;;;6.00;1.87;;;;;;;7.51;100.00;98694.94;5052190;23;21362;-65
2023/01/05 10:07:03;;;;;;;6.37;2.40;;;;;;;7.51;100.00;98699.41;5014775;23;20209;-68
2023/01/05 10:09:32;;;;;;;10.90;2.63;;;;;;;7.37;100.00;98698.25;5027194;23;22976;-68
2023/01/05 10:14:58;;;;;;;4.93;2.20;;;;;;;7.43;100.00;98696.78;5069836;23;20212;-71
2023/01/05 10:17:25;;;;;;;8.80;2.40;;;;;;;7.46;100.00;98691.13;5024382;23;20201;-69
2023/01/05 10:20:13;;;;;;;11.00;2.87;;;;;;;7.50;100.00;98689.81;5064213;23;20213;-67
2023/01/05 10:23:20;;;;;;;10.80;3.07;;;;;;;7.80;100.00;98685.63;5075495;23;21000;-69
2023/01/05 10:25:53;;;;;;;7.57;2.40;;;;;;;7.68;100.00;98697.53;5010164;23;20276;-69
2023/01/05 10:28:41;;;;;;;8.10;2.20;;;;;;;7.82;100.00;98692.38;5071704;23;20305;-68
2023/01/05 10:31:45;;;;;;;7.80;2.17;;;;;;;8.50;100.00;98689.28;5216506;23;20213;-71
2023/01/05 10:34:49;;;;;;;9.33;2.50;;;;;;;9.08;99.72;98688.75;5191911;23;20247;-67
2023/01/05 10:37:44;;;;;;;9.13;2.23;;;;;;;8.55;99.64;98685.13;5050711;23;22197;-68
2023/01/05 10:40:11;;;;;;;5.70;2.30;;;;;;;8.47;100.00;98684.34;5075132;23;21736;-69
2023/01/05 10:42:44;;;;;;;7.47;2.73;;;;;;;8.06;100.00;98685.34;5061110;23;20208;-68
2023/01/05 10:45:14;;;;;;;5.63;2.77;;;;;;;7.97;100.00;98695.13;5092774;23;20263;-68
2023/01/05 10:47:41;;;;;;;12.40;3.37;;;;;;;7.82;100.00;98688.91;5064729;23;20247;-67
2023/01/05 10:50:38;;;;;;;11.37;2.93;;;;;;;7.80;100.00;98690.91;5039398;23;21221;-68
2023/01/05 10:53:12;;;;;;;10.33;3.40;;;;;;;7.66;100.00;98688.97;5049226;23;20205;-68
2023/01/05 10:55:49;;;;;;;10.87;3.00;;;;;;;7.76;100.00;98686.94;5055807;23;21276;-66
2023/01/05 10:58:22;;;;;;;10.33;3.70;;;;;;;7.63;100.00;98686.63;5053717;23;20206;-65
2023/01/05 11:00:49;;;;;;;8.53;2.80;;;;;;;7.55;100.00;98688.31;5070441;23;20207;-68
2023/01/05 11:03:17;;;;;;;9.43;3.60;;;;;;;7.40;100.00;98684.72;5021903;23;21268;-66
2023/01/05 11:05:45;;;;;;;6.80;3.10;;;;;;;7.40;100.00;98692.66;5024322;23;21176;-66
2023/01/05 11:08:15;;;;;;;10.50;2.97;;;;;;;7.35;100.00;98692.31;5059876;23;21162;-66
2023/01/05 11:10:57;;;;;;;8.73;3.10;;;;;;;7.34;100.00;98693.31;5082339;23;22853;-69
2023/01/05 11:13:27;;;;;;;10.30;3.13;;;;;;;7.35;100.00;98689.66;5037399;23;20212;-69
2023/01/05 11:15:58;;;;;;;7.50;2.53;;;;;;;7.30;100.00;98687.50;5039067;23;20269;-68
2023/01/05 11:18:31;;;;;;;10.17;3.00;;;;;;;7.18;100.00;98689.66;5026254;23;20214;-67
2023/01/05 11:21:16;;;;;;;14.47;3.10;;;;;;;7.27;100.00;98692.31;5010301;23;22074;-67
2023/01/05 11:23:48;;;;;;;8.30;3.00;;;;;;;7.28;100.00;98699.25;5031801;23;20300;-69
2023/01/05 11:26:22;;;;;;;11.17;3.43;;;;;;;7.27;100.00;98692.31;5100528;23;20219;-66
2023/01/05 11:29:09;;;;;;;8.80;2.70;;;;;;;7.25;100.00;98704.91;5082679;23;22090;-67
2023/01/05 11:31:44;;;;;;;15.07;3.00;;;;;;;7.23;100.00;98702.41;5111027;23;20206;-67
2023/01/05 11:34:29;;;;;;;9.60;2.90;;;;;;;7.24;100.00;98687.38;5042502;23;20220;-67
2023/01/05 11:36:58;;;;;;;14.57;4.00;;;;;;;7.32;100.00;98696.13;5026540;23;20220;-66
2023/01/05 11:39:41;;;;;;;13.13;3.37;;;;;;;7.23;100.00;98696.28;5129080;23;20213;-67
2023/01/05 11:42:23;;;;;;;12.10;3.10;;;;;;;7.16;100.00;98691.69;5063425;23;20204;-67
2023/01/05 11:44:56;;;;;;;11.60;2.87;;;;;;;7.19;100.00;98688.69;5076677;23;20210;-67
2023/01/05 11:47:25;;;;;;;14.27;2.97;;;;;;;7.06;100.00;98701.59;5127435;23;20406;-67
2023/01/05 11:50:24;;;;;;;12.50;2.80;;;;;;;7.12;100.00;98694.81;5064000;23;26252;-69
2023/01/05 11:52:56;;;;;;;8.67;2.17;;;;;;;7.01;100.00;98680.09;5075271;23;20402;-67
2023/01/05 11:55:30;;;;;;;8.73;2.10;;;;;;;7.00;100.00;98689.03;5075011;23;20676;-68
2023/01/05 11:58:16;;;;;;;12.30;2.60;;;;;;;6.93;100.00;98686.22;5066352;23;20770;-65
2023/01/05 12:01:02;;;;;;;5.57;2.03;;;;;;;7.02;100.00;98684.38;5070472;23;20402;-68
2023/01/05 12:03:50;;;;;;;7.27;2.13;;;;;;;7.07;100.00;98689.19;5053845;23;20215;-65
2023/01/05 12:06:45;;;;;;;5.90;1.90;;;;;;;7.08;100.00;98690.84;5060313;23;21995;-67
2023/01/05 12:09:27;;;;;;;10.80;2.47;;;;;;;7.10;100.00;98692.34;5049862;23;20205;-68
2023/01/05 12:12:15;;;;;;;11.07;2.37;;;;;;;7.07;100.00;98695.31;5053987;23;20205;-64
2023/01/05 12:14:53;;;;;;;12.27;2.30;;;;;;;7.10;100.00;98697.63;5051857;23;20212;-65
2023/01/05 12:17:29;;;;;;;8.37;2.27;;;;;;;7.10;100.00;98702.91;5033510;23;20215;-65
2023/01/05 12:20:30;;;;;;;7.67;2.00;;;;;;;7.12;100.00;98700.13;5013811;23;20220;-66
2023/01/05 12:23:35;;;;;;;6.37;2.27;;;;;;;7.12;98.73;98705.41;5054368;23;20918;-67
2023/01/05 12:26:25;;;;;;;9.60;2.80;;;;;;;7.19;98.17;98696.63;5070855;23;20218;-67